Time;durP1;ratioP1;P1;durP2;ratioP2;P2;SDS_P1;SDS_P2;PMS_P1;PMS_P2;Temp;Humidity;BMP_temperature;BMP_pressure;BME280_temperature;BME280_humidity;BME280_pressure;Samples;Min_cycle;Max_cycle;Signal;HPM_P1;HPM_P2
2022/08/09 00:01:49;;;;;;;;;3.50;3.50;;;;;22.95;40.46;102130.03;5037648;28;46334;-81
2022/08/09 00:04:16;;;;;;;;;6.00;6.00;;;;;22.96;39.95;102129.13;5060418;28;45744;-81
2022/08/09 00:06:41;;;;;;;;;6.00;6.00;;;;;22.91;40.34;102123.22;5076134;28;45302;-81
2022/08/09 00:09:07;;;;;;;;;6.00;5.00;;;;;22.90;40.46;102131.25;5075857;28;45302;-81
2022/08/09 00:11:32;;;;;;;;;5.50;5.25;;;;;22.88;40.58;102133.16;5074593;28;75547;-81
2022/08/09 00:13:57;;;;;;;;;4.50;4.50;;;;;22.86;40.79;102129.75;5074480;28;73549;-81
2022/08/09 00:16:23;;;;;;;;;8.50;6.75;;;;;22.85;40.80;102130.69;5075525;28;61027;-81
2022/08/09 00:18:48;;;;;;;;;6.75;5.50;;;;;22.84;40.43;102123.66;5078609;28;63705;-81
2022/08/09 00:21:14;;;;;;;;;4.75;4.75;;;;;22.83;41.09;102122.81;5078180;28;74374;-81
2022/08/09 00:23:39;;;;;;;;;4.50;4.50;;;;;22.78;41.74;102115.13;5079293;28;45379;-81
2022/08/09 00:26:06;;;;;;;;;4.75;4.75;;;;;22.77;40.59;102113.41;5078273;27;69279;-80
2022/08/09 00:28:31;;;;;;;;;5.75;5.75;;;;;22.76;41.18;102114.34;5078883;28;45351;-80
2022/08/09 00:30:57;;;;;;;;;4.00;3.50;;;;;22.70;41.06;102104.09;5076289;28;45301;-80
2022/08/09 00:33:22;;;;;;;;;5.25;3.50;;;;;22.65;41.25;102115.94;5058922;28;45384;-80
2022/08/09 00:35:47;;;;;;;;;6.00;5.00;;;;;22.59;41.05;102104.72;5057908;28;68108;-80
2022/08/09 00:38:14;;;;;;;;;4.50;4.00;;;;;22.55;41.94;102105.00;5058524;28;48237;-80
2022/08/09 00:40:43;;;;;;;;;5.50;5.25;;;;;22.52;41.64;102108.69;5058524;28;45505;-80
2022/08/09 00:43:08;;;;;;;;;5.00;5.00;;;;;22.49;41.84;102114.19;5058345;28;45285;-80
2022/08/09 00:45:34;;;;;;;;;6.75;4.75;;;;;22.47;41.56;102102.78;5041004;28;45413;-81
2022/08/09 00:48:00;;;;;;;;;5.75;4.25;;;;;22.44;41.59;102105.63;5058830;28;45484;-80
2022/08/09 00:50:26;;;;;;;;;5.50;5.00;;;;;22.40;42.29;102104.09;5058454;28;45436;-81
2022/08/09 00:52:52;;;;;;;;;4.75;4.25;;;;;22.37;42.14;102107.75;5058344;28;45308;-80
2022/08/09 00:55:18;;;;;;;;;5.00;5.00;;;;;22.34;43.71;102102.66;5058637;28;45389;-80
2022/08/09 00:57:43;;;;;;;;;7.25;5.25;;;;;22.28;42.50;102108.28;5040196;28;45277;-80
2022/08/09 01:00:09;;;;;;;;;7.00;3.75;;;;;22.26;42.69;102104.88;5040155;28;45576;-80
2022/08/09 01:02:38;;;;;;;;;5.00;5.00;;;;;22.27;42.71;102117.19;5058364;28;45933;-80
2022/08/09 01:05:09;;;;;;;;;5.25;4.75;;;;;22.26;42.39;102111.97;5052087;28;45359;-80
2022/08/09 01:07:43;;;;;;;;;3.50;3.50;;;;;22.23;42.42;102107.66;5060601;28;45381;-80
2022/08/09 01:11:01;;;;;;;;;5.00;5.00;;;;;22.18;42.34;102113.22;5059933;28;47806;-80
2022/08/09 01:13:39;;;;;;;;;4.25;4.00;;;;;22.11;42.45;102106.56;4956542;28;45402;-80
2022/08/09 01:16:06;;;;;;;;;5.25;3.50;;;;;22.08;42.89;102114.66;4940858;28;45394;-80
2022/08/09 01:18:33;;;;;;;;;6.25;5.50;;;;;22.04;42.80;102106.03;4940696;28;45389;-80
2022/08/09 01:21:16;;;;;;;;;7.00;4.25;;;;;21.98;43.53;102109.03;4939920;28;66021;-80
2022/08/09 01:23:51;;;;;;;;;4.25;4.25;;;;;21.95;43.66;102106.56;4956614;28;45571;-80
2022/08/09 01:26:31;;;;;;;;;5.25;4.50;;;;;21.93;43.86;102112.88;4972691;28;45496;-80
2022/08/09 01:28:59;;;;;;;;;4.00;4.00;;;;;21.89;43.60;102117.50;4975244;28;45377;-80
2022/08/09 01:31:27;;;;;;;;;4.00;4.00;;;;;21.85;43.73;102111.50;4955689;28;59924;-80
2022/08/09 01:33:56;;;;;;;;;4.00;4.00;;;;;21.86;43.37;102117.69;4956613;28;45358;-80
2022/08/09 01:36:25;;;;;;;;;4.00;4.00;;;;;21.84;43.91;102109.81;4972826;28;45430;-80
2022/08/09 01:38:51;;;;;;;;;5.00;4.50;;;;;21.84;43.29;102115.09;4956645;28;45412;-80
2022/08/09 01:41:28;;;;;;;;;5.00;4.00;;;;;21.84;44.40;102111.56;4972190;28;55273;-80
2022/08/09 01:43:55;;;;;;;;;5.00;4.25;;;;;21.80;44.49;102105.63;4956759;28;45295;-80
2022/08/09 01:46:25;;;;;;;;;5.50;4.50;;;;;21.76;43.96;102111.16;4956713;28;45359;-81
2022/08/09 01:48:51;;;;;;;;;5.75;4.00;;;;;21.73;44.24;102106.00;4983425;28;45497;-80
2022/08/09 01:51:18;;;;;;;;;6.75;5.75;;;;;21.71;44.27;102108.78;5040453;28;45447;-81
2022/08/09 01:53:44;;;;;;;;;8.50;4.50;;;;;21.69;44.51;102102.66;5089296;27;66576;-80
2022/08/09 01:56:11;;;;;;;;;6.00;4.50;;;;;21.65;44.18;102107.28;5089609;27;69487;-80
2022/08/09 01:58:37;;;;;;;;;4.50;4.50;;;;;21.65;44.90;102106.44;5055807;28;56497;-80
2022/08/09 02:01:04;;;;;;;;;4.50;4.00;;;;;21.65;44.83;102106.44;5090091;27;46611;-81
2022/08/09 02:03:32;;;;;;;;;5.25;5.00;;;;;21.61;45.57;102107.53;5057489;28;45421;-81
2022/08/09 02:05:58;;;;;;;;;8.25;5.25;;;;;21.58;45.21;102105.94;5093604;27;45564;-81
2022/08/09 02:08:24;;;;;;;;;4.50;4.50;;;;;21.57;44.83;102111.31;5075750;28;53691;-80
2022/08/09 02:10:51;;;;;;;;;4.00;4.00;;;;;21.56;45.09;102106.94;5076220;28;46258;-80
2022/08/09 02:13:18;;;;;;;;;6.00;4.50;;;;;21.56;45.03;102107.81;5077507;28;45270;-80
2022/08/09 02:15:48;;;;;;;;;5.50;5.00;;;;;21.57;44.50;102114.78;5076563;28;45416;-80
2022/08/09 02:18:17;;;;;;;;;7.25;5.50;;;;;21.55;44.99;102106.06;5076433;28;45368;-81
2022/08/09 02:20:46;;;;;;;;;4.50;4.00;;;;;21.54;44.66;102103.50;5076301;28;46603;-80
2022/08/09 02:23:29;;;;;;;;;6.75;5.00;;;;;21.53;44.57;102109.75;5075821;28;45396;-80
2022/08/09 02:25:57;;;;;;;;;5.25;5.00;;;;;21.49;45.14;102100.25;5076228;28;45288;-80
2022/08/09 02:28:36;;;;;;;;;5.75;5.50;;;;;21.44;44.96;102109.28;5076241;28;45476;-80
2022/08/09 02:31:04;;;;;;;;;5.00;4.25;;;;;21.41;44.98;102097.97;5075997;28;46408;-80
2022/08/09 02:33:36;;;;;;;;;5.00;4.00;;;;;21.38;45.03;102100.81;5110018;27;45816;-80
2022/08/09 02:36:02;;;;;;;;;6.50;5.00;;;;;21.34;45.68;102093.94;5077227;28;45264;-80
2022/08/09 02:38:35;;;;;;;;;5.00;5.00;;;;;21.31;45.77;102094.97;5109924;27;45336;-81
2022/08/09 02:41:13;;;;;;;;;4.00;4.00;;;;;21.29;45.43;102090.69;5076681;28;46590;-80
2022/08/09 02:43:41;;;;;;;;;5.00;5.00;;;;;21.26;45.67;102100.47;5110073;27;45473;-80
2022/08/09 02:46:08;;;;;;;;;6.50;6.00;;;;;21.22;45.39;102098.09;5075975;28;45389;-80
2022/08/09 02:48:34;;;;;;;;;6.00;5.00;;;;;21.19;46.67;102098.25;5109956;27;45340;-81
2022/08/09 02:51:00;;;;;;;;;8.25;6.00;;;;;21.19;45.79;102090.28;5108979;27;74293;-80
2022/08/09 02:53:30;;;;;;;;;5.00;4.50;;;;;21.18;45.71;102100.03;5109402;27;45770;-80
2022/08/09 02:55:57;;;;;;;;;4.00;4.00;;;;;21.16;46.27;102096.63;5109938;27;45343;-80
2022/08/09 02:58:26;;;;;;;;;7.00;4.75;;;;;21.13;45.85;102096.78;5075761;28;45332;-80
2022/08/09 03:00:52;;;;;;;;;6.00;4.75;;;;;21.12;46.23;102096.84;5109577;27;45332;-81
2022/08/09 03:03:18;;;;;;;;;5.50;5.00;;;;;21.10;46.49;102090.78;5109694;27;45854;-80
2022/08/09 03:05:44;;;;;;;;;6.00;5.00;;;;;21.05;46.35;102093.69;5109525;27;45326;-80
2022/08/09 03:08:11;;;;;;;;;6.00;5.00;;;;;21.00;46.58;102099.19;5074286;28;70515;-80
2022/08/09 03:10:36;;;;;;;;;4.25;4.25;;;;;20.98;46.92;102101.06;5075598;28;70645;-81
2022/08/09 03:13:02;;;;;;;;;6.00;4.00;;;;;20.95;46.39;102093.31;5074247;28;70200;-80
2022/08/09 03:15:28;;;;;;;;;5.75;5.75;;;;;20.90;46.77;102099.78;5075583;28;45358;-81
2022/08/09 03:17:54;;;;;;;;;5.00;5.00;;;;;20.85;46.81;102095.53;5076566;28;45461;-80
2022/08/09 03:20:19;;;;;;;;;6.00;4.75;;;;;20.83;46.66;102099.22;5074292;28;71603;-80
2022/08/09 03:22:47;;;;;;;;;6.00;5.00;;;;;20.77;46.98;102100.38;5076065;28;47571;-80
2022/08/09 03:25:13;;;;;;;;;4.75;4.75;;;;;20.75;47.19;102096.94;5074179;28;62126;-81
2022/08/09 03:27:40;;;;;;;;;5.50;5.50;;;;;20.73;47.98;102096.19;5075117;28;45415;-80
2022/08/09 03:30:06;;;;;;;;;9.00;5.00;;;;;20.73;47.48;102095.31;5074932;28;45337;-80
2022/08/09 03:32:33;;;;;;;;;5.00;4.75;;;;;20.72;47.49;102091.81;5076043;28;45511;-80
2022/08/09 03:34:59;;;;;;;;;6.00;6.00;;;;;20.69;48.23;102092.81;5108790;27;45261;-80
2022/08/09 03:37:24;;;;;;;;;6.00;6.00;;;;;20.66;47.82;102095.63;5076122;28;45294;-80
2022/08/09 03:39:50;;;;;;;;;6.25;4.50;;;;;20.63;47.52;102094.91;5076004;28;46067;-81
2022/08/09 03:42:15;;;;;;;;;4.75;4.75;;;;;20.62;47.61;102090.56;5075280;28;60880;-81
2022/08/09 03:44:40;;;;;;;;;9.00;6.00;;;;;20.61;48.07;102089.69;5075368;28;66899;-81
2022/08/09 03:47:06;;;;;;;;;6.00;5.00;;;;;20.60;47.98;102087.13;5075801;28;52525;-81
2022/08/09 03:49:32;;;;;;;;;7.50;5.50;;;;;20.61;47.60;102088.84;5075014;28;60174;-81
2022/08/09 03:51:58;;;;;;;;;7.00;5.25;;;;;20.59;48.39;102094.16;5108218;27;47380;-81
2022/08/09 03:54:25;;;;;;;;;5.50;4.00;;;;;20.61;48.49;102100.28;5108952;27;45368;-81
2022/08/09 03:56:52;;;;;;;;;5.00;4.00;;;;;20.60;48.47;102093.28;5076065;28;45425;-81
2022/08/09 03:59:17;;;;;;;;;4.75;4.75;;;;;20.60;47.84;102095.94;5109066;27;45429;-81
2022/08/09 04:01:45;;;;;;;;;5.25;4.75;;;;;20.60;47.98;102093.28;5108082;27;71359;-81
2022/08/09 04:04:11;;;;;;;;;6.75;4.00;;;;;20.59;47.88;102091.53;5076250;27;45405;-81
2022/08/09 04:06:37;;;;;;;;;4.50;4.50;;;;;20.58;48.11;102097.78;5075212;28;45901;-81
2022/08/09 04:09:05;;;;;;;;;6.25;5.00;;;;;20.59;47.87;102101.25;5075763;28;46371;-81
2022/08/09 04:11:45;;;;;;;;;6.00;5.00;;;;;20.58;48.14;102097.78;5075955;27;45334;-81
2022/08/09 04:14:11;;;;;;;;;6.00;6.00;;;;;20.58;48.02;102107.47;5075935;27;45350;-81
2022/08/09 04:16:37;;;;;;;;;5.00;4.50;;;;;20.59;48.07;102111.84;5076122;27;45458;-81
2022/08/09 04:19:02;;;;;;;;;7.00;5.00;;;;;20.62;48.24;102114.38;5075630;27;45537;-81
2022/08/09 04:21:28;;;;;;;;;7.00;6.00;;;;;20.62;48.00;102111.72;5074893;27;69235;-81
2022/08/09 04:23:53;;;;;;;;;4.50;4.50;;;;;20.60;48.26;102110.94;5074999;28;63914;-81
2022/08/09 04:26:18;;;;;;;;;8.50;5.00;;;;;20.54;48.42;102109.44;5074687;28;70518;-81
2022/08/09 04:28:44;;;;;;;;;5.50;5.50;;;;;20.52;47.64;102111.28;5074868;28;74675;-81
2022/08/09 04:31:09;;;;;;;;;6.50;5.00;;;;;20.48;49.04;102110.56;5070294;28;69444;-81
2022/08/09 04:33:36;;;;;;;;;5.75;5.75;;;;;20.44;48.79;102114.31;5054181;28;69311;-81
2022/08/09 04:36:01;;;;;;;;;4.50;4.50;;;;;20.42;48.56;102120.59;5055446;28;45345;-81
2022/08/09 04:38:26;;;;;;;;;4.75;4.75;;;;;20.38;48.48;102119.06;5054504;28;68348;-81
2022/08/09 04:40:52;;;;;;;;;6.25;6.00;;;;;20.34;48.76;102123.63;5054146;28;73250;-81
2022/08/09 04:43:18;;;;;;;;;6.00;6.00;;;;;20.30;49.72;102116.78;5037574;28;45392;-81
2022/08/09 04:45:44;;;;;;;;;6.00;5.50;;;;;20.26;49.27;102116.06;5055367;28;45320;-81
2022/08/09 04:48:11;;;;;;;;;8.75;6.75;;;;;20.25;48.95;102118.78;5054684;28;45595;-81
2022/08/09 04:50:36;;;;;;;;;6.00;5.25;;;;;20.25;48.84;102122.28;5037262;28;45757;-81
2022/08/09 04:53:04;;;;;;;;;6.00;5.50;;;;;20.25;49.15;102124.06;5055195;28;45359;-81
2022/08/09 04:55:29;;;;;;;;;5.25;5.25;;;;;20.26;48.87;102123.13;5055013;28;45360;-81
2022/08/09 04:57:55;;;;;;;;;7.75;5.25;;;;;20.23;49.69;102124.13;5053940;28;73672;-81
2022/08/09 05:00:21;;;;;;;;;7.00;5.50;;;;;20.22;48.86;102119.75;5054786;28;45402;-80
2022/08/09 05:02:46;;;;;;;;;6.00;6.00;;;;;20.21;48.94;102126.00;5054771;28;45386;-81
2022/08/09 05:05:11;;;;;;;;;5.50;5.00;;;;;20.22;49.34;102129.50;5070736;28;45501;-81
2022/08/09 05:07:37;;;;;;;;;7.00;4.25;;;;;20.21;49.96;102128.63;5077423;28;74917;-81
2022/08/09 05:10:03;;;;;;;;;5.00;5.00;;;;;20.24;48.88;102130.28;5077719;28;62002;-81
2022/08/09 05:12:29;;;;;;;;;6.75;5.50;;;;;20.23;49.46;102132.06;5078517;28;45380;-81
2022/08/09 05:14:55;;;;;;;;;10.50;6.50;;;;;20.24;49.56;102125.84;5078479;28;45527;-81
2022/08/09 05:17:20;;;;;;;;;5.50;5.00;;;;;20.26;49.58;102123.13;5077056;28;73039;-80
2022/08/09 05:19:45;;;;;;;;;4.50;4.25;;;;;20.28;50.45;102123.91;5059385;28;69210;-81
2022/08/09 05:22:12;;;;;;;;;6.50;5.00;;;;;20.27;49.56;102130.13;5077692;28;59136;-81
2022/08/09 05:24:38;;;;;;;;;7.50;4.75;;;;;20.26;49.79;102129.28;5078107;28;45411;-81
2022/08/09 05:27:04;;;;;;;;;5.00;5.00;;;;;20.27;49.58;102127.50;5078007;28;46537;-81
2022/08/09 05:29:29;;;;;;;;;7.00;5.00;;;;;20.27;49.71;102130.13;5078167;28;45298;-81
2022/08/09 05:31:58;;;;;;;;;5.75;5.25;;;;;20.29;49.26;102134.41;5048796;28;45291;-81
2022/08/09 05:34:29;;;;;;;;;5.75;5.00;;;;;20.27;49.26;102135.41;5040458;28;45479;-81
2022/08/09 05:36:55;;;;;;;;;7.25;5.00;;;;;20.26;49.15;102142.50;5039508;28;46249;-81
2022/08/09 05:39:21;;;;;;;;;7.75;4.50;;;;;20.27;49.66;102146.00;5057558;28;45428;-81
2022/08/09 05:41:46;;;;;;;;;7.00;6.00;;;;;20.27;49.71;102140.72;5057768;28;45389;-81
2022/08/09 05:44:12;;;;;;;;;4.25;4.00;;;;;20.26;49.13;102145.16;5056808;28;69261;-81
2022/08/09 05:46:37;;;;;;;;;5.00;4.00;;;;;20.29;49.67;102149.44;5057225;28;46327;-81
2022/08/09 05:49:02;;;;;;;;;5.00;5.00;;;;;20.29;49.73;102149.44;5057352;28;45350;-81
2022/08/09 05:51:28;;;;;;;;;5.00;5.00;;;;;20.29;49.09;102144.97;5057640;28;45514;-81
2022/08/09 05:53:53;;;;;;;;;8.25;6.00;;;;;20.30;50.10;102149.34;5057038;28;57222;-81
2022/08/09 05:56:19;;;;;;;;;4.25;4.25;;;;;20.30;49.47;102154.66;5057345;28;45483;-81
2022/08/09 05:58:45;;;;;;;;;6.25;4.25;;;;;20.35;49.82;102153.56;5057482;28;45717;-81
2022/08/09 06:01:10;;;;;;;;;6.75;5.50;;;;;20.37;49.15;102147.25;5056061;28;69300;-81
2022/08/09 06:03:35;;;;;;;;;8.50;5.50;;;;;20.39;49.33;102150.72;5057608;28;45377;-80
2022/08/09 06:06:01;;;;;;;;;8.00;5.50;;;;;20.40;49.28;102148.91;5076479;28;61670;-81
2022/08/09 06:08:26;;;;;;;;;9.75;5.50;;;;;20.42;48.91;102155.00;5076821;28;63400;-81
2022/08/09 06:10:55;;;;;;;;;6.00;6.00;;;;;20.42;49.86;102150.53;5077133;28;48026;-80
2022/08/09 06:13:21;;;;;;;;;4.75;4.75;;;;;20.46;49.32;102156.53;5077736;28;45435;-80
2022/08/09 06:15:51;;;;;;;;;8.75;6.00;;;;;20.50;48.96;102164.28;5058494;28;45435;-81
2022/08/09 06:18:16;;;;;;;;;5.25;5.25;;;;;20.54;49.83;102165.00;5059348;28;45332;-81
2022/08/09 06:20:42;;;;;;;;;7.00;5.00;;;;;20.57;48.95;102169.25;5076936;28;59503;-81
2022/08/09 06:23:07;;;;;;;;;5.00;5.00;;;;;20.57;48.90;102177.19;5076647;28;61131;-81
2022/08/09 06:25:32;;;;;;;;;11.25;6.75;;;;;20.57;49.48;102174.56;5076417;27;65243;-81
2022/08/09 06:27:58;;;;;;;;;6.25;6.25;;;;;20.59;49.25;102175.34;5076548;28;67899;-81
2022/08/09 06:30:23;;;;;;;;;8.50;5.75;;;;;20.62;49.02;102178.72;5076556;28;52355;-81
2022/08/09 06:32:51;;;;;;;;;8.00;6.50;;;;;20.64;48.90;102178.66;5040733;28;45548;-81
2022/08/09 06:35:17;;;;;;;;;11.75;6.00;;;;;20.66;49.28;102180.28;5056670;28;45402;-81
2022/08/09 06:37:42;;;;;;;;;8.25;5.50;;;;;20.70;49.17;102181.00;5056694;28;45503;-80
2022/08/09 06:40:08;;;;;;;;;5.00;4.00;;;;;20.73;49.08;102190.56;5055982;28;67138;-81
2022/08/09 06:42:34;;;;;;;;;5.00;5.00;;;;;20.76;48.70;102180.69;5056822;28;45369;-81
2022/08/09 06:44:59;;;;;;;;;6.75;5.50;;;;;20.80;48.89;102191.97;5056464;28;46178;-81
2022/08/09 06:47:25;;;;;;;;;10.50;6.50;;;;;20.83;49.13;102181.25;5056784;28;45334;-81
2022/08/09 06:49:51;;;;;;;;;8.50;6.00;;;;;20.86;48.48;102176.66;5055658;28;69241;-80
2022/08/09 06:52:17;;;;;;;;;6.00;6.00;;;;;20.88;49.27;102180.09;5056559;28;45250;-80
2022/08/09 06:54:42;;;;;;;;;8.75;6.50;;;;;20.94;48.84;102188.66;5055563;28;71553;-81
2022/08/09 06:57:08;;;;;;;;;6.25;6.00;;;;;20.96;48.77;102184.16;5056583;28;45455;-80
2022/08/09 06:59:33;;;;;;;;;6.00;6.00;;;;;20.99;49.69;102179.56;5056259;28;45341;-80
2022/08/09 07:01:59;;;;;;;;;6.00;6.00;;;;;21.03;48.62;102183.75;5055870;28;66348;-81
2022/08/09 07:04:24;;;;;;;;;8.75;7.00;;;;;21.05;48.67;102188.97;5062678;28;45667;-80
2022/08/09 07:06:49;;;;;;;;;5.00;5.00;;;;;21.08;48.59;102191.47;5057660;28;70895;-80
2022/08/09 07:09:15;;;;;;;;;9.00;6.00;;;;;21.12;48.32;102192.16;5075654;28;67279;-80
2022/08/09 07:11:40;;;;;;;;;7.25;5.25;;;;;21.13;48.33;102193.88;5058913;28;45424;-80
2022/08/09 07:14:06;;;;;;;;;8.00;6.50;;;;;21.16;48.17;102196.38;5076135;28;46176;-81
2022/08/09 07:16:31;;;;;;;;;7.00;6.50;;;;;21.20;48.68;102201.44;5075555;28;72625;-81
2022/08/09 07:18:57;;;;;;;;;6.75;6.75;;;;;21.22;48.18;102202.22;5076492;28;45435;-81
2022/08/09 07:21:22;;;;;;;;;6.75;6.75;;;;;21.27;48.45;102199.34;5075932;28;62074;-81
2022/08/09 07:23:47;;;;;;;;;7.00;6.00;;;;;21.35;48.13;102209.53;5076292;28;46306;-80
2022/08/09 07:26:13;;;;;;;;;6.75;6.75;;;;;21.40;48.18;102207.53;5074082;27;68677;-80
2022/08/09 07:28:38;;;;;;;;;6.25;6.25;;;;;21.43;47.75;102202.94;5076560;28;45274;-81
2022/08/09 07:31:04;;;;;;;;;7.50;6.50;;;;;21.49;47.53;102203.56;5071600;28;68438;-81
2022/08/09 07:33:31;;;;;;;;;5.75;5.75;;;;;21.54;47.22;102201.53;5037755;28;47291;-81
2022/08/09 07:35:57;;;;;;;;;9.00;7.75;;;;;21.59;47.57;102203.00;5037982;28;45398;-81
2022/08/09 07:38:22;;;;;;;;;8.50;6.00;;;;;21.66;47.34;102198.25;5055860;28;45349;-80
2022/08/09 07:40:47;;;;;;;;;8.50;6.75;;;;;21.73;47.19;102198.75;5056048;28;45278;-81
2022/08/09 07:43:13;;;;;;;;;8.00;8.00;;;;;21.77;47.31;102195.88;5054612;28;69731;-80
2022/08/09 07:45:38;;;;;;;;;7.00;6.00;;;;;21.83;47.67;102187.59;5037861;28;45288;-81
2022/08/09 07:48:04;;;;;;;;;5.25;5.00;;;;;21.90;47.17;102192.56;5055060;28;66495;-81
2022/08/09 07:50:29;;;;;;;;;7.00;7.00;;;;;21.98;46.88;102195.66;5037576;28;45370;-80
2022/08/09 07:52:55;;;;;;;;;6.00;6.00;;;;;22.04;46.95;102190.88;5054901;28;70867;-81
2022/08/09 07:55:21;;;;;;;;;8.75;8.00;;;;;22.12;46.77;102192.25;5055662;28;45417;-81
2022/08/09 07:57:47;;;;;;;;;10.00;6.00;;;;;22.16;46.64;102192.00;5037447;28;45438;-80
2022/08/09 08:00:18;;;;;;;;;7.25;6.00;;;;;22.24;47.07;102196.91;5037869;28;45388;-81
2022/08/09 08:02:43;;;;;;;;;8.75;6.25;;;;;22.28;46.29;102195.81;5055604;28;46691;-80
2022/08/09 08:05:09;;;;;;;;;10.50;6.00;;;;;22.35;46.17;102194.53;5050138;28;45443;-81
2022/08/09 08:07:35;;;;;;;;;7.25;5.25;;;;;22.40;46.12;102197.78;5075971;28;45325;-80
2022/08/09 08:10:00;;;;;;;;;8.25;5.50;;;;;22.47;45.60;102192.97;5075308;28;56193;-81
2022/08/09 08:12:25;;;;;;;;;6.50;5.00;;;;;22.55;45.29;102198.72;5075319;28;49497;-80
2022/08/09 08:14:51;;;;;;;;;8.00;8.00;;;;;22.63;45.55;102197.44;5074817;28;67966;-81
2022/08/09 08:17:16;;;;;;;;;5.00;5.00;;;;;22.70;45.18;102193.50;5075938;28;45423;-81
2022/08/09 08:19:41;;;;;;;;;5.50;5.50;;;;;22.76;45.22;102198.44;5074950;28;69566;-80
2022/08/09 08:22:07;;;;;;;;;5.00;5.00;;;;;22.83;45.18;102198.97;5074742;28;73152;-80
2022/08/09 08:24:32;;;;;;;;;9.00;6.25;;;;;22.92;44.93;102193.09;5074767;28;69291;-81
2022/08/09 08:26:57;;;;;;;;;7.75;6.00;;;;;22.98;44.79;102196.25;5074338;28;65733;-81
2022/08/09 08:29:26;;;;;;;;;8.00;6.25;;;;;23.05;44.28;102201.22;5074727;28;67794;-81
2022/08/09 08:31:52;;;;;;;;;9.25;7.50;;;;;23.10;44.15;102194.69;5065190;28;45509;-80
2022/08/09 08:34:17;;;;;;;;;6.50;5.00;;;;;23.18;43.89;102199.59;5055298;28;45317;-81
2022/08/09 08:36:42;;;;;;;;;5.25;4.00;;;;;23.24;43.92;102201.03;5055124;28;50534;-81
2022/08/09 08:39:08;;;;;;;;;6.75;5.25;;;;;23.28;43.81;102199.88;5040228;28;45609;-81
2022/08/09 08:41:34;;;;;;;;;5.25;5.00;;;;;23.37;43.77;102204.66;5057843;28;62053;-81
2022/08/09 08:44:00;;;;;;;;;11.00;5.50;;;;;23.44;43.50;102198.03;5040581;28;45440;-81
2022/08/09 08:46:41;;;;;;;;;7.50;5.75;;;;;23.50;43.48;102200.31;5040812;28;45437;-81
2022/08/09 08:49:07;;;;;;;;;4.75;4.75;;;;;23.56;43.50;102199.91;5040941;28;45248;-81
2022/08/09 08:51:32;;;;;;;;;5.00;5.00;;;;;23.63;43.39;102200.41;5058437;28;46385;-81
2022/08/09 08:53:58;;;;;;;;;5.00;5.00;;;;;23.71;42.96;102197.28;5057441;28;64136;-81
2022/08/09 08:56:24;;;;;;;;;5.25;5.25;;;;;23.77;42.98;102192.44;5040847;28;45364;-81
2022/08/09 08:58:50;;;;;;;;;5.00;4.75;;;;;23.84;42.78;102190.28;5039687;28;69770;-81
2022/08/09 09:01:16;;;;;;;;;7.00;6.00;;;;;23.93;42.72;102191.53;5057187;28;75566;-81
2022/08/09 09:03:41;;;;;;;;;6.00;6.00;;;;;24.02;43.10;102192.75;5058584;28;46047;-80
2022/08/09 09:06:08;;;;;;;;;6.75;6.50;;;;;24.11;42.29;102192.19;5060719;28;45379;-81
2022/08/09 09:08:36;;;;;;;;;7.50;5.25;;;;;24.18;41.69;102195.28;5060166;28;45467;-81
2022/08/09 09:11:03;;;;;;;;;7.75;7.25;;;;;24.22;41.72;102194.13;5078510;28;46113;-81
2022/08/09 09:13:39;;;;;;;;;8.75;7.00;;;;;24.26;41.55;102196.50;5078577;28;45257;-81
2022/08/09 09:16:04;;;;;;;;;7.25;6.00;;;;;24.33;41.36;102195.16;5060542;28;45529;-81
2022/08/09 09:18:31;;;;;;;;;6.50;6.25;;;;;24.41;41.31;102197.34;5060305;28;45531;-81
2022/08/09 09:20:56;;;;;;;;;6.25;5.00;;;;;24.50;41.34;102204.72;5060155;28;45446;-81
2022/08/09 09:23:43;;;;;;;;;5.25;5.25;;;;;24.60;40.96;102201.50;5076852;28;72087;-81
2022/08/09 09:26:12;;;;;;;;;6.25;5.00;;;;;24.67;41.01;102193.00;5068350;28;45484;-81
2022/08/09 09:28:43;;;;;;;;;6.25;6.25;;;;;24.72;40.58;102190.91;5078340;28;45449;-81
2022/08/09 09:31:13;;;;;;;;;10.50;7.00;;;;;24.79;40.28;102188.66;5076646;28;45448;-81
2022/08/09 09:33:38;;;;;;;;;7.75;7.00;;;;;24.86;39.95;102194.44;5110837;27;45249;-81
2022/08/09 09:36:09;;;;;;;;;7.25;6.00;;;;;24.93;40.20;102187.75;5077271;28;69112;-81
2022/08/09 09:38:44;;;;;;;;;6.75;5.50;;;;;25.01;40.09;102187.25;5077753;28;45501;-81
2022/08/09 09:41:10;;;;;;;;;7.00;7.00;;;;;25.08;39.68;102183.22;5076660;28;46325;-81
2022/08/09 09:43:36;;;;;;;;;6.00;5.00;;;;;25.17;39.36;102184.41;5110989;27;45690;-81
2022/08/09 09:46:01;;;;;;;;;6.00;6.00;;;;;25.24;39.55;102180.38;5078254;28;45266;-81
2022/08/09 09:48:28;;;;;;;;;5.25;5.00;;;;;25.29;39.11;102178.25;5110633;27;56122;-81
2022/08/09 09:50:53;;;;;;;;;6.00;6.00;;;;;25.35;39.06;102180.47;5109791;27;45395;-81
2022/08/09 09:53:21;;;;;;;;;9.00;6.25;;;;;25.43;38.81;102172.81;5077548;28;45470;-81
2022/08/09 09:56:13;;;;;;;;;9.00;7.00;;;;;25.52;38.56;102179.34;5076835;28;45448;-81
2022/08/09 09:58:47;;;;;;;;;7.75;7.50;;;;;25.61;38.44;102185.81;5077471;27;45535;-81
2022/08/09 10:01:20;;;;;;;;;6.50;5.00;;;;;25.69;38.43;102179.00;5110472;27;45489;-81
2022/08/09 10:03:48;;;;;;;;;7.75;6.75;;;;;25.77;38.34;102174.94;5077746;27;45974;-81
2022/08/09 10:06:14;;;;;;;;;6.00;5.75;;;;;25.85;38.01;102169.91;5076642;28;45404;-81
2022/08/09 10:08:41;;;;;;;;;5.75;5.00;;;;;25.93;38.05;102167.59;5077390;28;45385;-81
2022/08/09 10:11:18;;;;;;;;;9.25;7.00;;;;;26.04;37.85;102169.50;5077556;28;46679;-81
2022/08/09 10:13:44;;;;;;;;;7.00;7.00;;;;;26.12;37.16;102177.78;5076138;28;45495;-81
2022/08/09 10:16:09;;;;;;;;;9.50;8.00;;;;;26.19;37.32;102163.03;5076325;28;45364;-81
2022/08/09 10:18:35;;;;;;;;;6.75;5.00;;;;;26.22;37.03;102162.78;5077546;28;45402;-81
2022/08/09 10:21:06;;;;;;;;;7.00;7.00;;;;;26.29;37.03;102160.53;5077010;28;46329;-81
2022/08/09 10:23:32;;;;;;;;;8.00;6.50;;;;;26.38;36.56;102175.03;5077310;27;45874;-81
2022/08/09 10:26:01;;;;;;;;;6.00;6.00;;;;;26.45;36.68;102162.94;5076043;28;45360;-81
2022/08/09 10:28:28;;;;;;;;;5.25;5.25;;;;;26.52;36.23;102153.47;5076273;28;45440;-81
2022/08/09 10:30:53;;;;;;;;;7.50;6.25;;;;;26.58;36.54;102161.06;5077042;28;45432;-81
2022/08/09 10:33:19;;;;;;;;;10.75;7.50;;;;;26.66;36.32;102160.50;5077206;28;45294;-81
2022/08/09 10:35:45;;;;;;;;;7.00;7.00;;;;;26.76;35.93;102158.00;5076714;28;48435;-81
2022/08/09 10:38:11;;;;;;;;;9.25;6.25;;;;;26.83;36.23;102161.91;5110324;27;45507;-81
2022/08/09 10:40:37;;;;;;;;;7.00;6.00;;;;;26.92;35.29;102160.38;5109804;27;46136;-81
2022/08/09 10:43:04;;;;;;;;;7.00;7.00;;;;;27.01;35.41;102160.50;5077099;28;45507;-81
2022/08/09 10:45:30;;;;;;;;;6.00;5.25;;;;;27.13;35.40;102157.84;5110016;27;45390;-81
2022/08/09 10:48:07;;;;;;;;;6.75;6.50;;;;;27.27;35.57;102149.66;5075926;28;45354;-81
2022/08/09 10:53:43;;;;;;;;;7.00;7.00;;;;;27.53;34.47;102146.78;5077133;28;45247;-82
2022/08/09 10:56:17;;;;;;;;;8.00;8.00;;;;;27.63;34.14;102144.22;5109935;27;45530;-81
2022/08/09 10:58:43;;;;;;;;;7.25;6.00;;;;;27.67;33.99;102140.31;5077335;28;45423;-81
2022/08/09 11:01:30;;;;;;;;;7.75;6.00;;;;;27.75;33.31;102145.91;5076945;28;47576;-81
2022/08/09 11:04:07;;;;;;;;;6.75;4.75;;;;;27.86;33.62;102139.69;5077028;27;45687;-81
2022/08/09 11:06:34;;;;;;;;;6.25;6.00;;;;;27.96;33.34;102146.88;5076836;28;45400;-81
2022/08/09 11:09:00;;;;;;;;;7.00;7.00;;;;;28.06;32.73;102141.63;5077219;27;45390;-81
2022/08/09 11:11:58;;;;;;;;;8.50;7.50;;;;;28.16;34.32;102136.38;5077033;28;45584;-81
2022/08/09 11:14:40;;;;;;;;;6.25;5.75;;;;;28.31;33.21;102145.00;5076766;27;45873;-81
2022/08/09 11:17:12;;;;;;;;;8.50;7.25;;;;;28.47;32.85;102137.38;5075757;28;45391;-81
2022/08/09 11:19:49;;;;;;;;;8.75;7.00;;;;;28.61;32.31;102144.28;5076648;28;45398;-82
2022/08/09 11:22:18;;;;;;;;;7.00;6.50;;;;;28.74;32.05;102139.59;5076745;28;45505;-81
2022/08/09 11:25:06;;;;;;;;;6.75;6.50;;;;;28.89;31.89;102128.56;5075399;28;45420;-81
2022/08/09 11:27:37;;;;;;;;;7.00;6.00;;;;;29.04;31.27;102129.06;5076825;27;45332;-81
2022/08/09 11:30:04;;;;;;;;;6.50;5.50;;;;;29.23;31.84;102126.53;5076577;27;45588;-81